Portada
METAR-TAF:

METAR-TAF

Aeropuertos :

Brive-la-Gaillarde, Francia

Souillac

latitud: 45-02-28N, longitud: 001-28-59E, altitud: 311 m

Observación

El informe se hizo hace 10 minutos, a las 16:30 UTC
Viento 5 kt del sureste, variando entre este-sureste y sur
Temperatura 28°C
Humedad 37%
Presión 1016 hPa
Visibilidad 10 km o más
sin nubes por debajo de 1500 m y sin presencia de cumulonimbus.

METAR: LFSL 281630Z AUTO 14005KT 110V180 CAVOK 28/12 Q1016 NOSIG

Hora: 18:40 (16:40 UTC)

Pronóstico

El informe se hizo hace 2 horas y 40 minutos, a las 14:00 UTC
Pronóstico válido del 28 a las 15 UTC al 28 a las 24 UTC
Viento 10 kt del sur-sureste
Visibilidad 10 km o más
sin nubes por debajo de 1500 m y sin presencia de cumulonimbus.

TAF: LFSL 281400Z 2815/2824 15010KT CAVOK

Observaciones y pronósticos meteorológicos de más de 4000 aeropuertos (mensajes METAR y TAF).

Los puntos amarillos y rojos representan las estaciones disponibles.

Ponga el ratón en el punto deseado para ver el nombre de la estación.

Haga clic para ver las observaciones y los pronósticos meteorológicos.

Para cambiar el mapa : haga clic en los botones verdes con una cruz de color negro para hacer un zoom, en el botón verde con un guión para alejar o en las flechas verdes para mapas adyacentes.


METAR-TAF: